Time;durP1;ratioP1;P1;durP2;ratioP2;P2;SDS_P1;SDS_P2;PMS_P1;PMS_P2;Temp;Humidity;BMP_temperature;BMP_pressure;BME280_temperature;BME280_humidity;BME280_pressure;Samples;Min_cycle;Max_cycle;Signal;HPM_P1;HPM_P2
2023/06/16 00:00:15;;;;;;;6.78;2.60;;;21.80;61.10;;;;;;6185203;23;20020;-78
2023/06/16 00:02:44;;;;;;;5.28;2.40;;;21.80;61.50;;;;;;6158423;23;20104;-78
2023/06/16 00:05:11;;;;;;;6.93;2.50;;;21.70;61.60;;;;;;6186600;23;20016;-78
2023/06/16 00:07:37;;;;;;;5.53;2.47;;;21.60;61.60;;;;;;6187075;23;20009;-78
2023/06/16 00:10:07;;;;;;;6.22;2.58;;;21.60;62.40;;;;;;6185510;23;20024;-78
2023/06/16 00:12:34;;;;;;;4.43;2.50;;;21.50;61.30;;;;;;6160125;23;20106;-78
2023/06/16 00:15:00;;;;;;;4.80;2.67;;;21.50;61.80;;;;;;6159692;23;20119;-78
2023/06/16 00:17:26;;;;;;;5.13;2.60;;;21.40;62.10;;;;;;6185587;23;20021;-78
2023/06/16 00:19:57;;;;;;;5.45;2.47;;;21.30;62.50;;;;;;6159483;23;20021;-78
2023/06/16 00:22:26;;;;;;;4.05;2.53;;;21.30;62.80;;;;;;6186758;23;20013;-78
2023/06/16 00:24:52;;;;;;;6.80;2.60;;;21.20;63.10;;;;;;6158835;23;20028;-78
2023/06/16 00:27:22;;;;;;;6.57;2.45;;;21.20;63.10;;;;;;6186744;23;20013;-78
2023/06/16 00:29:49;;;;;;;5.60;2.60;;;21.20;63.10;;;;;;6158892;23;20049;-78
2023/06/16 00:32:15;;;;;;;5.55;2.70;;;21.10;63.10;;;;;;6159728;23;20438;-78
2023/06/16 00:34:40;;;;;;;6.13;3.10;;;21.00;63.40;;;;;;6186887;23;20096;-78
2023/06/16 00:37:06;;;;;;;6.70;2.92;;;21.00;63.20;;;;;;6158805;23;20052;-78
2023/06/16 00:39:31;;;;;;;5.75;2.80;;;21.00;63.90;;;;;;6159843;23;20024;-78
2023/06/16 00:41:57;;;;;;;5.90;2.78;;;20.90;63.90;;;;;;6159703;23;20043;-78
2023/06/16 00:44:23;;;;;;;4.57;2.50;;;20.80;63.50;;;;;;6159094;23;20021;-78
2023/06/16 00:46:49;;;;;;;6.15;2.70;;;20.80;63.70;;;;;;6185531;23;20068;-78
2023/06/16 00:49:15;;;;;;;6.70;2.80;;;20.70;63.70;;;;;;6160290;23;20021;-78
2023/06/16 00:51:42;;;;;;;6.38;3.13;;;20.70;63.70;;;;;;6158896;23;20096;-78
2023/06/16 00:54:08;;;;;;;7.20;3.22;;;20.60;63.40;;;;;;6157936;23;20056;-78
2023/06/16 00:56:37;;;;;;;7.30;3.13;;;20.60;63.60;;;;;;6158665;23;20021;-78
2023/06/16 00:59:03;;;;;;;6.45;2.95;;;20.50;63.60;;;;;;6157367;23;20411;-78
2023/06/16 01:01:30;;;;;;;7.65;3.20;;;20.50;64.30;;;;;;6157945;23;20048;-78
2023/06/16 01:03:57;;;;;;;6.88;2.90;;;20.40;64.20;;;;;;6157654;23;20017;-78
2023/06/16 01:06:41;;;;;;;5.18;3.00;;;20.40;64.60;;;;;;6185568;23;20060;-77
2023/06/16 01:09:23;;;;;;;5.82;3.10;;;20.30;64.50;;;;;;6159384;23;20039;-78
2023/06/16 01:12:05;;;;;;;7.00;3.15;;;20.30;65.00;;;;;;6185706;23;20516;-78
2023/06/16 01:15:03;;;;;;;5.90;3.30;;;20.20;64.90;;;;;;6187144;23;20103;-78
2023/06/16 01:17:32;;;;;;;5.53;3.33;;;20.20;65.60;;;;;;6188673;23;20256;-78
2023/06/16 01:20:09;;;;;;;6.32;3.33;;;20.20;66.70;;;;;;6161376;23;20087;-78
2023/06/16 01:22:53;;;;;;;5.30;3.13;;;20.10;66.70;;;;;;6188714;23;20334;-78
2023/06/16 01:25:24;;;;;;;6.10;3.22;;;20.20;66.60;;;;;;6186684;23;20013;-78
2023/06/16 01:27:52;;;;;;;6.10;3.40;;;20.10;67.30;;;;;;6185458;23;20083;-78
2023/06/16 01:30:22;;;;;;;6.63;3.35;;;20.20;67.40;;;;;;6159237;23;20049;-78
2023/06/16 01:32:51;;;;;;;7.68;3.60;;;20.10;67.60;;;;;;6186393;23;20040;-78
2023/06/16 01:35:18;;;;;;;8.95;3.42;;;20.10;67.60;;;;;;6159255;23;20024;-78
2023/06/16 01:37:44;;;;;;;5.20;3.33;;;20.10;67.70;;;;;;6186410;23;20346;-78
2023/06/16 01:40:11;;;;;;;5.22;3.28;;;20.00;68.00;;;;;;6158059;23;20024;-79
2023/06/16 01:42:37;;;;;;;5.78;3.30;;;20.10;68.40;;;;;;6159294;23;20063;-78
2023/06/16 01:45:04;;;;;;;6.78;3.58;;;20.00;68.30;;;;;;6185317;23;20481;-78
2023/06/16 01:47:30;;;;;;;5.22;3.17;;;20.00;68.30;;;;;;6158389;23;20017;-79
2023/06/16 01:49:56;;;;;;;5.50;3.45;;;20.00;68.60;;;;;;6159163;23;20104;-79
2023/06/16 01:52:22;;;;;;;6.57;3.80;;;20.00;68.80;;;;;;6159164;23;20017;-78
2023/06/16 01:54:47;;;;;;;5.38;3.22;;;20.00;69.70;;;;;;6184871;23;20048;-78
2023/06/16 01:57:13;;;;;;;6.75;3.65;;;19.90;69.00;;;;;;6158975;23;20013;-78
2023/06/16 01:59:39;;;;;;;7.53;3.78;;;19.90;69.10;;;;;;6159320;23;20017;-79
2023/06/16 02:02:15;;;;;;;8.75;3.95;;;19.90;69.20;;;;;;6184036;23;20047;-78
2023/06/16 02:04:45;;;;;;;6.25;4.15;;;19.80;69.10;;;;;;6185921;23;20017;-78
2023/06/16 02:07:14;;;;;;;7.15;3.72;;;19.80;69.40;;;;;;6158893;23;20017;-78
2023/06/16 02:09:42;;;;;;;6.68;3.83;;;19.80;69.50;;;;;;6184938;23;20020;-78
2023/06/16 02:12:11;;;;;;;7.10;3.72;;;19.80;69.50;;;;;;6184631;23;20021;-78
2023/06/16 02:14:38;;;;;;;6.38;3.83;;;19.70;69.10;;;;;;6185603;23;20064;-78
2023/06/16 02:17:13;;;;;;;8.18;3.63;;;19.70;69.30;;;;;;6184301;23;20059;-78
2023/06/16 02:19:39;;;;;;;7.15;3.75;;;19.60;69.20;;;;;;6185579;23;20067;-77
2023/06/16 02:22:05;;;;;;;6.65;3.72;;;19.60;69.60;;;;;;6185587;23;20424;-78
2023/06/16 02:24:31;;;;;;;9.25;4.15;;;19.50;69.00;;;;;;6185278;23;20116;-78
2023/06/16 02:26:56;;;;;;;7.75;4.18;;;19.40;69.40;;;;;;6184852;23;20020;-78
2023/06/16 02:29:22;;;;;;;7.47;3.95;;;19.40;69.90;;;;;;6183936;23;20017;-78
2023/06/16 02:31:49;;;;;;;6.68;3.83;;;19.30;69.90;;;;;;6158936;23;20017;-78
2023/06/16 02:34:15;;;;;;;8.13;4.20;;;19.30;70.50;;;;;;6158613;23;20009;-78
2023/06/16 02:36:41;;;;;;;7.18;3.90;;;19.30;71.20;;;;;;6158409;23;20017;-78
2023/06/16 02:39:09;;;;;;;7.35;4.20;;;19.20;71.50;;;;;;6158568;23;20055;-78
2023/06/16 02:41:35;;;;;;;7.63;3.95;;;19.20;71.50;;;;;;6158652;23;20077;-78
2023/06/16 02:44:01;;;;;;;6.53;3.83;;;19.10;71.50;;;;;;6183976;23;20013;-78
2023/06/16 02:46:26;;;;;;;6.57;4.13;;;19.10;71.40;;;;;;6185537;23;20064;-78
2023/06/16 02:48:52;;;;;;;6.05;4.28;;;19.00;71.30;;;;;;6158146;23;20013;-78
2023/06/16 02:51:17;;;;;;;5.32;3.78;;;19.00;71.40;;;;;;6157992;23;20454;-78
2023/06/16 02:53:45;;;;;;;6.03;3.97;;;18.90;71.90;;;;;;6159065;23;20044;-78
2023/06/16 02:56:11;;;;;;;6.88;4.25;;;18.90;71.90;;;;;;6184978;23;20024;-78
2023/06/16 02:58:37;;;;;;;6.05;3.90;;;18.80;71.90;;;;;;6184462;23;20017;-78
2023/06/16 03:01:04;;;;;;;6.32;3.92;;;18.80;72.20;;;;;;6158001;23;20021;-78
2023/06/16 03:03:31;;;;;;;5.75;4.07;;;18.80;73.30;;;;;;6158861;23;20020;-78
2023/06/16 03:05:58;;;;;;;7.07;4.25;;;18.70;71.60;;;;;;6157719;23;20021;-78
2023/06/16 03:08:25;;;;;;;6.63;4.25;;;18.70;71.70;;;;;;6159040;23;20024;-78
2023/06/16 03:10:51;;;;;;;6.13;3.85;;;18.60;72.10;;;;;;6159160;23;20017;-78
2023/06/16 03:13:17;;;;;;;6.45;3.90;;;18.60;72.00;;;;;;6184148;23;20373;-78
2023/06/16 03:15:44;;;;;;;6.35;4.25;;;18.60;72.00;;;;;;6184824;23;20442;-78
2023/06/16 03:18:10;;;;;;;6.35;4.07;;;18.50;73.30;;;;;;6157915;23;20092;-78
2023/06/16 03:20:36;;;;;;;6.70;4.38;;;18.50;74.60;;;;;;6184849;23;20029;-78
2023/06/16 03:23:02;;;;;;;6.93;4.32;;;18.50;75.00;;;;;;6158193;23;20438;-78
2023/06/16 03:25:30;;;;;;;7.18;4.22;;;18.50;75.00;;;;;;6184007;23;20112;-78
2023/06/16 03:27:56;;;;;;;7.47;4.65;;;18.50;75.60;;;;;;6157984;23;20017;-78
2023/06/16 03:30:22;;;;;;;6.43;4.55;;;18.50;75.70;;;;;;6158240;23;20024;-78
2023/06/16 03:32:47;;;;;;;7.82;4.95;;;18.50;74.60;;;;;;6158909;23;20013;-78
2023/06/16 03:35:13;;;;;;;8.30;4.65;;;18.40;75.30;;;;;;6159100;23;20028;-78
2023/06/16 03:37:39;;;;;;;8.43;5.18;;;18.40;75.80;;;;;;6185146;23;20070;-78
2023/06/16 03:40:06;;;;;;;7.13;4.63;;;18.40;75.50;;;;;;6183488;23;20013;-78
2023/06/16 03:42:32;;;;;;;7.68;5.13;;;18.40;75.50;;;;;;6158751;23;20017;-78
2023/06/16 03:44:58;;;;;;;7.95;5.22;;;18.40;75.90;;;;;;6157845;23;20059;-78
2023/06/16 03:47:24;;;;;;;6.05;4.55;;;18.30;76.00;;;;;;6157056;23;20013;-78
2023/06/16 03:49:50;;;;;;;6.65;5.22;;;18.40;76.30;;;;;;6157910;23;20009;-78
2023/06/16 03:52:15;;;;;;;7.25;5.10;;;18.30;76.30;;;;;;6158305;23;20107;-78
2023/06/16 03:54:41;;;;;;;7.10;4.85;;;18.30;76.60;;;;;;6157123;23;20040;-79
2023/06/16 03:57:06;;;;;;;8.23;5.40;;;18.30;76.40;;;;;;6157719;23;20021;-78
2023/06/16 03:59:32;;;;;;;8.07;5.80;;;18.20;75.90;;;;;;6157852;23;20095;-78
2023/06/16 04:01:58;;;;;;;7.68;5.63;;;18.20;76.60;;;;;;6183819;23;20333;-78
2023/06/16 04:04:25;;;;;;;8.82;5.38;;;18.20;76.60;;;;;;6184749;23;20066;-78
2023/06/16 04:06:51;;;;;;;8.98;5.65;;;18.20;76.70;;;;;;6184623;23;20021;-78
2023/06/16 04:09:17;;;;;;;9.40;5.70;;;18.20;77.30;;;;;;6184199;23;20013;-78
2023/06/16 04:11:42;;;;;;;8.73;5.63;;;18.20;77.20;;;;;;6158223;23;20445;-78
2023/06/16 04:14:09;;;;;;;9.52;5.80;;;18.20;77.10;;;;;;6184302;23;20021;-78
2023/06/16 04:16:37;;;;;;;7.53;5.65;;;18.20;77.00;;;;;;6183334;23;20032;-78
2023/06/16 04:19:06;;;;;;;7.30;5.53;;;18.10;77.00;;;;;;6157772;23;20064;-78
2023/06/16 04:21:32;;;;;;;6.90;5.30;;;18.10;77.10;;;;;;6157879;23;20445;-78
2023/06/16 04:23:57;;;;;;;8.07;5.93;;;18.10;77.10;;;;;;6183159;23;20019;-78
2023/06/16 04:26:27;;;;;;;7.60;5.68;;;18.20;76.90;;;;;;6184909;23;20021;-78
2023/06/16 04:28:55;;;;;;;8.30;5.88;;;18.10;75.80;;;;;;6157148;23;20024;-78
2023/06/16 04:31:21;;;;;;;7.90;5.50;;;18.10;76.20;;;;;;6158266;23;20023;-78
2023/06/16 04:33:48;;;;;;;6.85;5.63;;;18.10;76.00;;;;;;6158469;23;20116;-78
2023/06/16 04:36:14;;;;;;;7.65;5.72;;;18.10;76.30;;;;;;6156802;23;20013;-78
2023/06/16 04:38:40;;;;;;;7.50;5.97;;;18.00;75.00;;;;;;6158434;23;20017;-78
2023/06/16 04:41:06;;;;;;;8.30;5.97;;;18.00;74.70;;;;;;6157550;23;20079;-78
2023/06/16 04:43:32;;;;;;;7.80;6.15;;;18.00;74.20;;;;;;6157511;23;20013;-78
2023/06/16 04:45:58;;;;;;;8.05;5.90;;;17.90;74.00;;;;;;6157139;23;20128;-77
2023/06/16 04:48:25;;;;;;;8.15;6.20;;;17.90;74.10;;;;;;6184637;23;20016;-77
2023/06/16 04:50:53;;;;;;;9.18;7.22;;;17.90;74.30;;;;;;6158247;23;20021;-78
2023/06/16 04:53:19;;;;;;;11.00;7.53;;;17.90;75.70;;;;;;6160103;23;20036;-78
2023/06/16 04:55:44;;;;;;;7.63;5.97;;;17.90;76.60;;;;;;6160048;23;20024;-77
2023/06/16 04:58:11;;;;;;;7.45;6.05;;;17.80;75.70;;;;;;6158146;23;20013;-77
2023/06/16 05:00:36;;;;;;;7.60;5.90;;;17.90;75.80;;;;;;6159831;23;20021;-79
2023/06/16 05:03:02;;;;;;;8.48;6.50;;;17.80;75.70;;;;;;6185484;23;20039;-78
2023/06/16 05:05:28;;;;;;;8.32;5.97;;;17.80;76.20;;;;;;6158557;23;20017;-78
2023/06/16 05:07:53;;;;;;;6.85;5.72;;;17.80;76.50;;;;;;6159802;23;20031;-85
2023/06/16 05:10:19;;;;;;;8.05;6.70;;;17.80;76.00;;;;;;6186193;23;20028;-86
2023/06/16 05:12:44;;;;;;;8.40;6.00;;;17.90;76.00;;;;;;6186792;23;20013;-85
2023/06/16 05:15:10;;;;;;;7.78;6.20;;;17.90;77.10;;;;;;6160399;23;20108;-85
2023/06/16 05:17:37;;;;;;;8.27;6.53;;;17.80;76.30;;;;;;6185481;23;20016;-78
2023/06/16 05:20:03;;;;;;;9.20;7.72;;;17.80;77.00;;;;;;6185431;23;20047;-79
2023/06/16 05:22:28;;;;;;;8.82;6.47;;;17.90;78.40;;;;;;6159419;23;20401;-78
2023/06/16 05:24:54;;;;;;;8.40;6.50;;;17.90;78.80;;;;;;6155409;23;20025;-79
2023/06/16 05:27:25;;;;;;;12.98;9.70;;;18.00;78.70;;;;;;6183777;23;20009;-78
2023/06/16 05:29:54;;;;;;;10.90;9.27;;;17.90;80.30;;;;;;6185070;23;20410;-78
2023/06/16 05:32:21;;;;;;;8.93;6.20;;;17.90;81.00;;;;;;6177720;23;20036;-78
2023/06/16 05:34:50;;;;;;;9.60;7.88;;;18.00;80.00;;;;;;6157052;23;20060;-78
2023/06/16 05:37:17;;;;;;;8.95;6.63;;;17.90;79.50;;;;;;6184507;23;20472;-79
2023/06/16 05:39:43;;;;;;;9.10;6.50;;;18.00;79.00;;;;;;6184042;23;20009;-78
2023/06/16 05:42:16;;;;;;;13.00;10.43;;;17.90;78.80;;;;;;6184531;23;20079;-78
2023/06/16 05:44:42;;;;;;;8.65;6.90;;;17.90;80.70;;;;;;6185632;23;20013;-78
2023/06/16 05:47:08;;;;;;;8.02;6.65;;;18.00;79.80;;;;;;6183833;23;20357;-79
2023/06/16 05:49:34;;;;;;;9.85;8.02;;;18.00;79.20;;;;;;6158307;23;20346;-79
2023/06/16 05:52:02;;;;;;;8.68;6.93;;;18.00;80.00;;;;;;6184493;23;20021;-78
2023/06/16 05:54:28;;;;;;;19.33;14.15;;;18.00;79.50;;;;;;6184711;23;20403;-79
2023/06/16 05:56:55;;;;;;;11.98;9.27;;;18.10;84.20;;;;;;6157493;23;20024;-79
2023/06/16 05:59:21;;;;;;;8.55;7.63;;;18.10;83.00;;;;;;6157852;23;20014;-79
2023/06/16 06:01:49;;;;;;;9.98;8.07;;;18.10;81.10;;;;;;6184765;23;20024;-79
2023/06/16 06:04:14;;;;;;;8.60;7.30;;;18.10;81.40;;;;;;6157633;23;20031;-79
2023/06/16 06:06:40;;;;;;;11.73;9.88;;;18.10;80.80;;;;;;6185887;23;20449;-79
2023/06/16 06:09:06;;;;;;;9.73;7.30;;;18.20;81.50;;;;;;6184432;23;20021;-79
2023/06/16 06:11:31;;;;;;;11.13;7.88;;;18.10;80.00;;;;;;6159423;23;20017;-79
2023/06/16 06:13:57;;;;;;;15.10;12.43;;;18.20;80.10;;;;;;6184772;23;20064;-79
2023/06/16 06:16:23;;;;;;;13.25;10.05;;;18.20;83.40;;;;;;6185068;23;20337;-79
2023/06/16 06:18:49;;;;;;;14.05;12.57;;;18.20;82.70;;;;;;6184815;23;20021;-82
2023/06/16 06:21:15;;;;;;;10.23;8.90;;;18.30;85.40;;;;;;6157875;23;20040;-78
2023/06/16 06:23:41;;;;;;;9.68;7.97;;;18.30;82.90;;;;;;6185239;23;20017;-79
2023/06/16 06:26:06;;;;;;;12.13;9.93;;;18.30;82.10;;;;;;6158556;23;20063;-79
2023/06/16 06:28:32;;;;;;;10.68;8.15;;;18.30;83.30;;;;;;6185009;23;20088;-79
2023/06/16 06:30:58;;;;;;;14.32;10.75;;;18.30;82.00;;;;;;6185270;23;20410;-81
2023/06/16 06:33:23;;;;;;;10.02;8.02;;;18.40;84.20;;;;;;6185175;23;20021;-80
2023/06/16 06:35:49;;;;;;;10.48;8.45;;;18.50;83.00;;;;;;6157235;23;20107;-80
2023/06/16 06:38:15;;;;;;;17.55;10.35;;;18.50;82.20;;;;;;6158768;23;20377;-80
2023/06/16 06:40:40;;;;;;;9.65;8.13;;;18.60;84.20;;;;;;6158304;23;20024;-79
2023/06/16 06:43:06;;;;;;;11.85;10.43;;;18.70;83.60;;;;;;6156445;23;20020;-80
2023/06/16 06:45:31;;;;;;;11.82;9.52;;;18.70;84.20;;;;;;6158381;23;20148;-80
2023/06/16 06:47:57;;;;;;;10.55;8.27;;;18.80;85.00;;;;;;6185455;23;20337;-80
2023/06/16 06:50:23;;;;;;;9.52;7.70;;;18.90;83.60;;;;;;6183848;23;20122;-80
2023/06/16 06:52:48;;;;;;;9.38;7.43;;;18.90;82.40;;;;;;6158299;23;20025;-81
2023/06/16 06:55:14;;;;;;;15.52;12.90;;;19.10;82.00;;;;;;6184621;23;20013;-80
2023/06/16 06:57:42;;;;;;;9.57;8.23;;;19.10;85.20;;;;;;6157325;23;20048;-80
2023/06/16 07:00:08;;;;;;;9.85;8.68;;;19.20;83.90;;;;;;6184374;23;20442;-80
2023/06/16 07:02:34;;;;;;;9.43;7.97;;;19.30;83.30;;;;;;6184036;23;20037;-81
2023/06/16 07:05:00;;;;;;;10.98;8.80;;;19.40;82.60;;;;;;6183126;23;20441;-80
2023/06/16 07:07:25;;;;;;;11.75;8.50;;;19.50;83.80;;;;;;6158583;23;20017;-81
2023/06/16 07:09:51;;;;;;;12.10;8.80;;;19.60;83.70;;;;;;6157481;23;20413;-80
2023/06/16 07:12:16;;;;;;;10.15;8.50;;;19.70;84.30;;;;;;6156965;23;20378;-81
2023/06/16 07:14:47;;;;;;;8.75;6.45;;;19.80;83.50;;;;;;6158260;23;20009;-80
2023/06/16 07:17:13;;;;;;;10.35;7.97;;;19.90;81.80;;;;;;6156899;23;20025;-81
2023/06/16 07:19:38;;;;;;;13.65;9.25;;;20.00;82.40;;;;;;6157346;23;20013;-81
2023/06/16 07:22:05;;;;;;;10.43;8.18;;;20.10;84.10;;;;;;6156855;23;20461;-80
2023/06/16 07:24:31;;;;;;;10.70;6.70;;;20.20;83.60;;;;;;6158063;23;20346;-81
2023/06/16 07:26:59;;;;;;;8.60;6.85;;;20.30;81.70;;;;;;6183870;23;20314;-80
2023/06/16 07:29:25;;;;;;;13.10;8.57;;;20.40;80.80;;;;;;6157782;23;20020;-82
2023/06/16 07:31:51;;;;;;;9.43;6.97;;;20.50;81.40;;;;;;6156389;23;20024;-81
2023/06/16 07:34:17;;;;;;;13.00;7.70;;;20.60;81.00;;;;;;6184919;23;20017;-81
2023/06/16 07:36:42;;;;;;;11.30;7.18;;;20.70;81.30;;;;;;6158033;23;20024;-80
2023/06/16 07:39:08;;;;;;;9.75;7.22;;;20.80;80.80;;;;;;6183246;23;20029;-80
2023/06/16 07:41:34;;;;;;;10.32;7.20;;;20.90;80.00;;;;;;6157900;23;20044;-80
2023/06/16 07:43:59;;;;;;;11.10;6.93;;;21.00;80.00;;;;;;6158812;23;20013;-81
2023/06/16 07:46:25;;;;;;;9.43;7.40;;;21.10;80.30;;;;;;6157798;23;20103;-80
2023/06/16 07:48:50;;;;;;;7.68;6.15;;;21.10;80.60;;;;;;6183911;23;20013;-79
2023/06/16 07:51:16;;;;;;;9.65;7.85;;;21.20;79.50;;;;;;6185036;23;20036;-80
2023/06/16 07:53:42;;;;;;;9.00;6.38;;;21.30;80.30;;;;;;6157168;23;20008;-80
2023/06/16 07:56:08;;;;;;;10.32;7.25;;;21.40;79.30;;;;;;6157837;23;20080;-79
2023/06/16 07:58:37;;;;;;;10.50;6.60;;;21.50;79.10;;;;;;6184811;23;20465;-81
2023/06/16 08:01:04;;;;;;;9.10;6.63;;;21.60;78.90;;;;;;6183247;23;20084;-81
2023/06/16 08:03:30;;;;;;;7.82;6.20;;;21.70;79.00;;;;;;6185253;23;20076;-80
2023/06/16 08:05:57;;;;;;;10.38;7.10;;;21.80;77.70;;;;;;6158092;23;20027;-80
2023/06/16 08:08:23;;;;;;;9.90;6.93;;;22.00;77.40;;;;;;6183875;23;20502;-80
2023/06/16 08:10:51;;;;;;;15.10;6.40;;;22.00;76.90;;;;;;6184413;23;20032;-82
2023/06/16 08:13:16;;;;;;;12.63;6.78;;;22.10;76.70;;;;;;6185057;23;20013;-81
2023/06/16 08:15:42;;;;;;;10.23;5.85;;;22.20;76.10;;;;;;6157071;23;20021;-81
2023/06/16 08:18:07;;;;;;;9.10;6.30;;;22.20;76.10;;;;;;6157041;23;20028;-81
2023/06/16 08:20:35;;;;;;;9.65;6.10;;;22.30;76.50;;;;;;6184691;23;20434;-81
2023/06/16 08:23:00;;;;;;;10.68;5.80;;;22.40;76.10;;;;;;6183365;23;20035;-82
2023/06/16 08:25:27;;;;;;;9.10;5.80;;;22.40;75.60;;;;;;6159797;23;20437;-81
2023/06/16 08:27:52;;;;;;;9.10;5.53;;;22.50;75.10;;;;;;6158975;23;20023;-82
2023/06/16 08:30:19;;;;;;;9.75;5.63;;;22.60;74.60;;;;;;6185375;23;20091;-83
2023/06/16 08:32:44;;;;;;;9.38;5.95;;;22.60;74.30;;;;;;6160319;23;20017;-81
2023/06/16 08:35:10;;;;;;;8.23;5.47;;;22.70;74.00;;;;;;6158200;23;20017;-83
2023/06/16 08:37:36;;;;;;;12.55;6.18;;;22.80;73.70;;;;;;6160043;23;20024;-82
2023/06/16 08:40:07;;;;;;;9.35;5.85;;;22.90;73.70;;;;;;6159448;23;20021;-83
2023/06/16 08:42:36;;;;;;;7.55;5.47;;;22.90;73.10;;;;;;6159241;23;20095;-80
2023/06/16 08:45:03;;;;;;;8.38;5.70;;;23.00;73.00;;;;;;6159347;23;20024;-80
2023/06/16 08:47:29;;;;;;;8.20;5.40;;;23.10;72.70;;;;;;6159693;23;20013;-82
2023/06/16 08:49:56;;;;;;;8.85;5.47;;;23.20;72.90;;;;;;6184313;23;20099;-82
2023/06/16 08:52:23;;;;;;;8.25;6.47;;;23.30;72.40;;;;;;6159350;23;20016;-82
2023/06/16 08:54:57;;;;;;;7.28;4.97;;;23.40;72.80;;;;;;6158849;23;20438;-82
2023/06/16 08:57:23;;;;;;;8.95;5.10;;;23.50;72.70;;;;;;6158813;23;20017;-81
2023/06/16 08:59:53;;;;;;;9.35;5.22;;;23.50;70.20;;;;;;6159145;23;20024;-80
2023/06/16 09:02:20;;;;;;;6.10;4.90;;;23.50;69.30;;;;;;6186350;23;20021;-81
2023/06/16 09:04:46;;;;;;;6.53;4.70;;;23.60;69.80;;;;;;6159179;23;20010;-81
2023/06/16 09:07:16;;;;;;;12.35;5.30;;;23.60;69.70;;;;;;6159142;23;20147;-80
2023/06/16 09:09:42;;;;;;;8.63;4.90;;;23.60;68.80;;;;;;6185490;23;20013;-82
2023/06/16 09:12:10;;;;;;;10.43;5.25;;;23.60;68.70;;;;;;6184653;23;20021;-82
2023/06/16 09:14:37;;;;;;;7.82;4.93;;;23.70;68.70;;;;;;6159785;23;20017;-81
2023/06/16 09:17:07;;;;;;;6.88;5.38;;;23.70;68.80;;;;;;6158486;23;20013;-81
2023/06/16 09:19:47;;;;;;;8.07;4.47;;;23.70;67.30;;;;;;6185995;23;20013;-81
2023/06/16 09:22:18;;;;;;;8.23;4.60;;;23.70;67.80;;;;;;6158030;23;20341;-81
2023/06/16 09:24:51;;;;;;;10.20;4.72;;;23.80;67.70;;;;;;6185245;23;20024;-80
2023/06/16 09:27:18;;;;;;;10.70;4.30;;;23.90;67.80;;;;;;6186025;23;20609;-81
2023/06/16 09:29:50;;;;;;;9.10;4.13;;;24.00;68.40;;;;;;6185898;23;20013;-81
2023/06/16 09:32:16;;;;;;;6.13;4.10;;;24.10;65.60;;;;;;6184776;23;20438;-81
2023/06/16 09:34:43;;;;;;;7.40;4.13;;;24.20;65.20;;;;;;6158592;23;20075;-81
2023/06/16 09:37:17;;;;;;;6.95;4.30;;;24.30;65.00;;;;;;6158927;23;20492;-80
2023/06/16 09:39:43;;;;;;;5.97;4.03;;;24.30;63.70;;;;;;6158208;23;20220;-80
2023/06/16 09:42:14;;;;;;;5.75;2.97;;;24.50;65.80;;;;;;6158633;23;20449;-80
2023/06/16 09:44:41;;;;;;;7.97;3.25;;;24.50;60.80;;;;;;6158820;23;20013;-79
2023/06/16 09:47:06;;;;;;;6.95;3.08;;;24.60;59.00;;;;;;6183701;23;20152;-80
2023/06/16 09:49:32;;;;;;;7.93;3.50;;;24.60;58.00;;;;;;6158745;23;20438;-80
2023/06/16 09:51:59;;;;;;;7.82;3.72;;;24.70;58.60;;;;;;6184908;23;20462;-81
2023/06/16 09:54:25;;;;;;;6.03;2.97;;;24.80;58.50;;;;;;6158243;23;20068;-80
2023/06/16 09:56:55;;;;;;;6.07;3.42;;;24.80;58.20;;;;;;6158497;23;20012;-80
2023/06/16 09:59:21;;;;;;;8.32;3.80;;;24.90;56.50;;;;;;6157862;23;20323;-80
2023/06/16 10:01:47;;;;;;;9.80;3.63;;;24.90;56.90;;;;;;6158381;23;20024;-80
2023/06/16 10:04:16;;;;;;;6.15;3.47;;;24.90;56.40;;;;;;6158555;23;20019;-82
2023/06/16 10:07:04;;;;;;;8.25;3.00;;;25.00;55.90;;;;;;6184588;23;20430;-81
2023/06/16 10:09:42;;;;;;;6.80;3.10;;;25.00;56.00;;;;;;6158645;23;20013;-80
2023/06/16 10:12:10;;;;;;;5.72;3.13;;;25.10;55.70;;;;;;6158221;23;20087;-80
2023/06/16 10:14:36;;;;;;;4.60;2.67;;;25.10;56.80;;;;;;6157642;23;20013;-81
2023/06/16 10:17:02;;;;;;;5.93;3.08;;;25.20;56.40;;;;;;6184332;23;20017;-81
2023/06/16 10:19:33;;;;;;;6.10;3.00;;;25.30;58.70;;;;;;6158842;23;20028;-80
2023/06/16 10:21:59;;;;;;;7.78;3.15;;;25.40;59.00;;;;;;6182890;23;20096;-79
2023/06/16 10:24:25;;;;;;;7.25;2.75;;;25.50;56.90;;;;;;6201947;23;20017;-79
2023/06/16 10:26:51;;;;;;;5.95;2.83;;;25.60;57.90;;;;;;6157113;23;20341;-79
2023/06/16 10:29:20;;;;;;;6.35;2.78;;;25.70;54.60;;;;;;6164468;23;20021;-81
2023/06/16 10:31:51;;;;;;;8.75;3.20;;;25.70;52.60;;;;;;6157917;23;20009;-79
2023/06/16 10:34:22;;;;;;;5.55;2.70;;;25.70;52.70;;;;;;6158332;23;20025;-79
2023/06/16 10:36:51;;;;;;;6.75;3.10;;;25.80;53.70;;;;;;6157017;23;20092;-80
2023/06/16 10:39:17;;;;;;;4.57;2.33;;;25.80;53.80;;;;;;6158368;23;20017;-80
2023/06/16 10:42:00;;;;;;;8.02;2.58;;;25.90;53.50;;;;;;6157219;23;20354;-80
2023/06/16 10:44:29;;;;;;;5.43;2.33;;;26.00;53.20;;;;;;6158855;23;20071;-80
2023/06/16 10:47:10;;;;;;;6.43;2.80;;;26.00;55.60;;;;;;6184484;23;20020;-84
2023/06/16 10:49:52;;;;;;;5.45;2.60;;;26.20;55.70;;;;;;6157945;23;20346;-80
2023/06/16 10:52:32;;;;;;;6.80;2.53;;;26.20;52.00;;;;;;6185080;23;20017;-81
2023/06/16 10:55:18;;;;;;;5.20;2.60;;;26.30;52.80;;;;;;6184226;23;20009;-80
2023/06/16 10:57:46;;;;;;;8.52;2.55;;;26.30;51.90;;;;;;6136122;23;20028;-81
2023/06/16 11:00:15;;;;;;;7.88;2.60;;;26.40;51.00;;;;;;6155779;23;20411;-81
2023/06/16 11:02:53;;;;;;;6.47;2.70;;;26.40;49.90;;;;;;6182369;23;20076;-80
2023/06/16 11:05:22;;;;;;;8.23;2.83;;;26.40;50.90;;;;;;6184785;23;20088;-83
2023/06/16 11:07:58;;;;;;;6.30;2.67;;;26.50;50.30;;;;;;6156952;23;20055;-83
2023/06/16 11:10:24;;;;;;;6.07;2.50;;;26.50;48.70;;;;;;6156025;23;20341;-84
2023/06/16 11:12:50;;;;;;;7.20;2.60;;;26.50;51.30;;;;;;6183807;23;20032;-80
2023/06/16 11:15:16;;;;;;;9.90;2.65;;;26.50;50.40;;;;;;6157308;23;20013;-81
2023/06/16 11:17:43;;;;;;;5.65;2.30;;;26.50;49.80;;;;;;6183715;23;20017;-80
2023/06/16 11:20:11;;;;;;;5.68;2.35;;;26.50;51.30;;;;;;6157229;23;20032;-79
2023/06/16 11:22:37;;;;;;;5.00;2.25;;;26.50;51.60;;;;;;6158280;23;20021;-80
2023/06/16 11:25:03;;;;;;;4.95;2.42;;;26.50;52.20;;;;;;6156269;23;20512;-80
2023/06/16 11:27:33;;;;;;;6.20;2.63;;;26.60;50.80;;;;;;6157969;23;20028;-80
2023/06/16 11:30:01;;;;;;;4.20;2.45;;;26.60;51.10;;;;;;6157882;23;20051;-80
2023/06/16 11:32:30;;;;;;;5.20;2.30;;;26.60;51.80;;;;;;6156063;23;20017;-80
2023/06/16 11:34:57;;;;;;;4.75;2.58;;;26.70;50.70;;;;;;6182783;23;20024;-80
2023/06/16 11:37:51;;;;;;;7.50;2.60;;;26.70;49.60;;;;;;6181959;23;20013;-81
2023/06/16 11:40:30;;;;;;;5.43;2.50;;;26.70;50.80;;;;;;6157359;23;20013;-80
2023/06/16 11:43:01;;;;;;;5.93;2.30;;;26.80;48.80;;;;;;6155674;23;20048;-81
2023/06/16 11:45:46;;;;;;;5.43;2.35;;;26.80;47.70;;;;;;6156562;23;20014;-81
2023/06/16 11:48:13;;;;;;;6.93;2.60;;;26.90;47.50;;;;;;6157369;23;20454;-83
2023/06/16 11:50:40;;;;;;;3.85;2.40;;;26.90;49.30;;;;;;6157058;23;20019;-81
2023/06/16 11:53:05;;;;;;;6.65;2.70;;;26.90;51.20;;;;;;6156488;23;20021;-80
2023/06/16 11:55:31;;;;;;;4.45;2.72;;;26.90;48.20;;;;;;6158015;23;20050;-80
2023/06/16 11:57:57;;;;;;;7.18;2.65;;;27.00;50.80;;;;;;6157667;23;20075;-81
2023/06/16 12:00:23;;;;;;;7.13;2.50;;;27.00;48.60;;;;;;6158641;23;20104;-81
2023/06/16 12:02:50;;;;;;;9.65;2.80;;;27.10;47.40;;;;;;6185822;23;20028;-83
2023/06/16 12:05:36;;;;;;;4.57;2.38;;;27.20;46.00;;;;;;6186372;23;20024;-82
2023/06/16 12:08:02;;;;;;;5.28;2.30;;;27.20;46.40;;;;;;6184155;23;20094;-81
2023/06/16 12:10:28;;;;;;;4.55;2.42;;;27.20;50.00;;;;;;6158503;23;20021;-80
2023/06/16 12:12:54;;;;;;;4.90;2.50;;;27.20;49.50;;;;;;6184331;23;20076;-80
2023/06/16 12:15:22;;;;;;;5.38;2.50;;;27.30;50.00;;;;;;6186088;23;20012;-80
2023/06/16 12:17:47;;;;;;;3.75;2.17;;;27.40;50.80;;;;;;6159289;23;20013;-80
2023/06/16 12:20:15;;;;;;;5.10;2.20;;;27.50;51.40;;;;;;6183961;23;20825;-80
2023/06/16 12:22:40;;;;;;;3.70;2.30;;;27.50;47.30;;;;;;6159484;23;20043;-80
2023/06/16 12:25:13;;;;;;;4.32;2.28;;;27.60;46.40;;;;;;6158407;23;20112;-79
2023/06/16 12:27:42;;;;;;;4.22;2.13;;;27.60;50.20;;;;;;6185342;23;20009;-81
2023/06/16 12:30:08;;;;;;;5.55;2.20;;;27.70;48.70;;;;;;6185989;23;20032;-80
2023/06/16 12:32:34;;;;;;;6.45;2.25;;;27.70;47.20;;;;;;6159261;23;20009;-81
2023/06/16 12:35:01;;;;;;;6.30;2.63;;;27.70;47.00;;;;;;6157709;23;20398;-81
2023/06/16 12:37:29;;;;;;;5.47;2.10;;;27.60;48.40;;;;;;6185754;23;20024;-81
2023/06/16 12:40:00;;;;;;;4.82;2.40;;;27.60;49.20;;;;;;6185324;23;20021;-81
2023/06/16 12:42:29;;;;;;;4.47;2.03;;;27.70;46.70;;;;;;6158714;23;20023;-80
2023/06/16 12:44:59;;;;;;;4.15;2.20;;;27.70;48.90;;;;;;6158990;23;20013;-80
2023/06/16 12:47:26;;;;;;;5.57;2.30;;;27.70;48.70;;;;;;6186231;23;20024;-80